West Stockholm, New York
Current Conditions -  °F | °C
As of 3:53 PM on Sunday 23 Nov 2014 (Local Time) from KMSS Reporting Station
Broken Clouds Broken Clouds  
Wind Chill: 46°   Ceiling: 4700
Heat Index: 48°   Visibility: 10mi
Dew Point: 42°   Wind: 5mph
Humidity: 80%   Direction: 190°S
Pressure: 30"   Gusts: NA
Location:  44.71°N, 74.9°W
Report Text: KMSS 232053Z AUTO 19004KT 10SM FEW025 BKN047 BKN060 09/06 A3000 RMK AO2 SLP162 T00890056 55006 $
Loading
Personal Weather Stations






























Interactive Weather Map New forecast layout! Learn more

10-Day Weather Forecast

Advertisements
Track Severe Weather on mobile